Hauptseite
METAR-TAF:

METAR-TAF

Flughäfen :

Belfast, Nordirland

Belfast International Airport

Breite: 54-39N, Länge: 006-13W, Höhe: 81 m

Beobachtung

Neuester Wetterbericht von vor 35 Minuten, um 21:20 UTC
Wind 7 kt aus Ost
Temperatur 2°C
Luftfeuchtigkeit 75%
Luftdruck 1029 hPa
Sichtweite 10 km oder mehr
keine Wolken unter 1500 m und keine Kumulonimbus oder Gewitterwolken

METAR: EGAA 252120Z 09007KT CAVOK 02/M02 Q1029

Zeit: 21:55 (21:55 UTC)

Prognose

Neuester Wetterbericht von vor 4 Stunden und 52 Minuten, um 17:03 UTC
Gültige Prognose vom 25 um 18 UTC bis 26 um 18 UTC
Wind 10 kt aus Ost/Südost
Sichtweite 10 km oder mehr
Leicht bewölkt in der Höhe von 2000 ft

TAF: EGAA 251703Z 2518/2618 11010KT 9999 FEW020

Wetterbeobachtungen und Prognosen von mehr als 4000 Flughäfen (METAR und TAF Bericht).

Die verfügbaren Stationen werden durch gelbe und rote Markierungen auf der Karte dargestellt.

Führen Sie die Maus auf sie, um den Namen der Station zu sehen.

Darauf klicken, um die Beobachtung von Wetterbeobachtungen und Prognosen zu sehen.

Um die Karte zu ändern : klicken Sie auf den grünen Tasten mit einem schwarzen Kreuz Zum Vergrößern, auf den grünen Button mit einem Gedankenstrich zu verkleinern, oder auf die grünen Pfeile für benachbarte Karten.


METAR-TAF: